Time;durP1;ratioP1;P1;durP2;ratioP2;P2;SDS_P1;SDS_P2;PMS_P1;PMS_P2;Temp;Humidity;BMP_temperature;BMP_pressure;BME280_temperature;BME280_humidity;BME280_pressure;Samples;Min_cycle;Max_cycle;Signal;HPM_P1;HPM_P2
2022/07/03 00:00:04;;;;;;;3.50;1.73;;;20.50;93.60;;;20.44;100.00;100605.63;4988152;28;20049;-77
2022/07/03 00:02:37;;;;;;;2.47;1.80;;;20.40;93.70;;;20.30;100.00;100606.50;4985844;28;20043;-77
2022/07/03 00:05:05;;;;;;;2.15;1.45;;;20.30;94.00;;;20.17;100.00;100600.19;4985001;28;20050;-78
2022/07/03 00:07:32;;;;;;;2.88;1.58;;;20.20;94.30;;;20.02;100.00;100602.81;4976216;28;20046;-77
2022/07/03 00:09:59;;;;;;;4.00;1.70;;;20.20;94.50;;;20.13;100.00;100594.16;4986602;28;20431;-77
2022/07/03 00:12:26;;;;;;;2.67;1.85;;;20.10;94.40;;;20.09;100.00;100597.97;4985585;28;20396;-77
2022/07/03 00:14:53;;;;;;;2.88;1.45;;;20.00;94.50;;;19.96;100.00;100596.03;5004390;28;20078;-77
2022/07/03 00:17:20;;;;;;;2.47;1.63;;;20.00;95.00;;;19.91;100.00;100592.75;4988009;28;20038;-77
2022/07/03 00:19:47;;;;;;;2.72;1.30;;;20.00;95.20;;;19.91;100.00;100592.75;4984827;28;20193;-77
2022/07/03 00:22:15;;;;;;;3.45;1.52;;;19.90;95.30;;;19.94;100.00;100597.09;4987180;28;20040;-77
2022/07/03 00:24:50;;;;;;;7.10;2.03;;;19.80;95.30;;;19.90;100.00;100598.19;4969727;28;20038;-77
2022/07/03 00:27:23;;;;;;;1.95;1.60;;;19.80;95.40;;;19.89;100.00;100592.00;4975745;28;20038;-77
2022/07/03 00:29:53;;;;;;;3.33;1.60;;;19.80;95.40;;;19.86;100.00;100594.84;4987307;28;20126;-77
2022/07/03 00:32:23;;;;;;;2.72;1.60;;;19.80;95.30;;;19.84;100.00;100594.94;4982235;28;20034;-77
2022/07/03 00:34:52;;;;;;;1.55;1.40;;;19.80;95.10;;;19.74;100.00;100593.75;4986020;28;20039;-77
2022/07/03 00:37:21;;;;;;;3.55;1.50;;;19.80;95.20;;;19.78;100.00;100597.97;4971518;28;20050;-77
2022/07/03 00:39:49;;;;;;;2.95;1.63;;;19.70;95.10;;;19.81;100.00;100586.25;4984077;28;20118;-77
2022/07/03 00:42:19;;;;;;;3.17;2.00;;;19.70;95.00;;;19.85;100.00;100595.81;4984304;28;20042;-76
2022/07/03 00:44:52;;;;;;;4.57;2.40;;;19.70;95.00;;;19.69;100.00;100587.84;4985017;28;20130;-77
2022/07/03 00:47:26;;;;;;;3.80;2.10;;;19.70;95.20;;;19.67;100.00;100590.63;4968635;28;21305;-76
2022/07/03 00:49:59;;;;;;;2.25;1.60;;;19.60;95.30;;;19.72;100.00;100598.31;4978576;28;20059;-76
2022/07/03 00:52:30;;;;;;;2.33;1.80;;;19.60;95.30;;;19.59;100.00;100591.97;4984346;28;20201;-76
2022/07/03 00:54:59;;;;;;;2.38;1.50;;;19.50;95.50;;;19.55;100.00;100594.00;4984341;28;20050;-77
2022/07/03 00:57:29;;;;;;;4.30;1.60;;;19.50;95.50;;;19.46;100.00;100599.84;4982665;28;20043;-76
2022/07/03 00:59:57;;;;;;;3.88;1.70;;;19.50;95.70;;;19.32;100.00;100601.50;4982316;28;20054;-76
2022/07/03 01:03:04;;;;;;;6.18;1.70;;;19.40;96.00;;;19.26;100.00;100604.53;4983224;28;20080;-76
2022/07/03 01:05:40;;;;;;;2.05;1.42;;;19.30;96.00;;;19.12;100.00;100607.97;4985263;28;20047;-76
2022/07/03 01:08:25;;;;;;;3.05;1.70;;;19.20;96.20;;;19.10;100.00;100612.53;4981795;28;20041;-76
2022/07/03 01:11:24;;;;;;;2.63;1.50;;;19.10;96.00;;;19.10;100.00;100615.19;4983807;28;20057;-76
2022/07/03 01:14:24;;;;;;;3.92;1.60;;;19.10;96.20;;;19.11;100.00;100615.13;4982819;28;20042;-76
2022/07/03 01:17:26;;;;;;;2.63;1.80;;;19.10;96.20;;;19.13;100.00;100613.22;4985719;28;20046;-76
2022/07/03 01:20:02;;;;;;;2.58;1.88;;;19.00;96.10;;;19.25;100.00;100619.66;4983819;28;20049;-76
2022/07/03 01:22:43;;;;;;;2.20;1.98;;;19.00;96.00;;;19.29;100.00;100606.19;4984638;28;20038;-76
2022/07/03 01:25:22;;;;;;;3.97;1.98;;;19.10;95.90;;;19.25;100.00;100616.16;4985843;28;21377;-76
2022/07/03 01:28:12;;;;;;;2.55;1.60;;;19.10;95.80;;;19.18;100.00;100615.63;4984200;28;20041;-76
2022/07/03 01:30:47;;;;;;;2.90;1.77;;;19.10;96.10;;;19.11;100.00;100614.25;4968792;28;20038;-76
2022/07/03 01:33:26;;;;;;;2.00;1.80;;;19.00;96.10;;;19.05;100.00;100607.47;4983313;28;20046;-76
2022/07/03 01:36:06;;;;;;;6.93;2.10;;;19.00;96.40;;;19.08;100.00;100609.97;4981519;28;20042;-77
2022/07/03 01:38:39;;;;;;;3.27;1.87;;;19.00;96.40;;;18.98;100.00;100600.72;4981980;28;20038;-76
2022/07/03 01:41:12;;;;;;;2.40;1.90;;;19.00;96.50;;;18.89;100.00;100602.09;4980203;28;20662;-75
2022/07/03 01:43:48;;;;;;;2.65;1.88;;;18.90;96.60;;;18.83;100.00;100602.44;4985404;28;20488;-76
2022/07/03 01:46:18;;;;;;;2.42;2.00;;;18.90;96.80;;;18.79;100.00;100598.19;4967089;28;20077;-75
2022/07/03 01:48:47;;;;;;;2.00;1.63;;;18.80;96.70;;;18.78;100.00;100604.47;4979702;28;20042;-75
2022/07/03 01:51:16;;;;;;;2.60;1.90;;;19.20;97.10;;;18.64;100.00;100595.44;4981528;28;20038;-75
2022/07/03 01:53:48;;;;;;;2.33;2.03;;;18.70;97.00;;;18.66;100.00;100593.56;4982508;28;20141;-75
2022/07/03 01:56:22;;;;;;;2.10;1.88;;;18.70;96.90;;;18.64;100.00;100586.59;4980528;28;20061;-75
2022/07/03 01:58:49;;;;;;;4.82;2.03;;;18.60;97.10;;;18.61;100.00;100589.44;4965184;28;20042;-75
2022/07/03 02:01:39;;;;;;;2.88;2.03;;;18.60;97.10;;;18.69;100.00;100587.19;4982309;28;20046;-75
2022/07/03 02:04:22;;;;;;;1.90;1.70;;;18.60;97.30;;;18.59;100.00;100586.00;4980977;28;20598;-75
2022/07/03 02:07:40;;;;;;;2.28;1.98;;;18.50;97.00;;;18.51;100.00;100576.59;4983920;28;20043;-75
2022/07/03 02:10:11;;;;;;;2.83;2.03;;;18.50;97.30;;;18.47;100.00;100579.50;4970770;28;20054;-75
2022/07/03 02:12:52;;;;;;;3.75;2.53;;;18.40;97.30;;;18.39;100.00;100577.25;4980944;28;20034;-75
2022/07/03 02:15:33;;;;;;;4.13;2.00;;;18.40;97.40;;;18.31;100.00;100577.66;4979363;28;20129;-75
2022/07/03 02:18:35;;;;;;;3.63;2.00;;;18.40;97.60;;;18.32;100.00;100574.03;4965769;28;20052;-75
2022/07/03 02:21:16;;;;;;;3.17;2.00;;;18.30;97.50;;;18.32;100.00;100586.53;4975365;28;20134;-76
2022/07/03 02:23:59;;;;;;;2.85;1.90;;;18.20;97.70;;;18.30;100.00;100583.94;4982365;28;20049;-75
2022/07/03 02:26:42;;;;;;;6.03;2.40;;;18.20;97.90;;;18.28;100.00;100577.81;4981799;28;20039;-76
2022/07/03 02:29:46;;;;;;;3.80;2.20;;;18.20;98.10;;;18.36;100.00;100578.28;4980624;28;20046;-76
2022/07/03 02:32:21;;;;;;;6.10;2.92;;;18.30;98.00;;;18.33;100.00;100578.44;4959599;28;20534;-75
2022/07/03 02:35:04;;;;;;;2.67;2.17;;;18.20;98.10;;;18.27;100.00;100584.97;4978433;28;20415;-76
2022/07/03 02:37:39;;;;;;;2.75;2.05;;;18.30;98.20;;;18.29;100.00;100592.84;4982058;28;20064;-75
2022/07/03 02:40:40;;;;;;;4.63;2.20;;;18.20;98.20;;;18.34;100.00;100592.63;4977490;28;20506;-75
2022/07/03 02:43:07;;;;;;;3.70;2.47;;;18.20;98.10;;;18.20;100.00;100598.69;4975899;28;20054;-75
2022/07/03 02:45:51;;;;;;;2.30;2.10;;;18.60;98.00;;;17.98;100.00;100599.75;4980755;28;20794;-75
2022/07/03 02:48:35;;;;;;;2.58;2.15;;;18.40;98.10;;;17.95;100.00;100599.91;4980383;28;20353;-75
2022/07/03 02:51:33;;;;;;;6.15;2.22;;;18.00;98.30;;;17.78;100.00;100596.31;4981598;28;20056;-75
2022/07/03 02:54:11;;;;;;;4.18;2.50;;;17.90;98.20;;;17.72;100.00;100596.63;4981073;28;20039;-76
2022/07/03 02:57:07;;;;;;;3.55;2.08;;;17.80;98.30;;;17.92;100.00;100600.06;4981056;28;21461;-75
2022/07/03 03:00:03;;;;;;;2.25;2.05;;;17.80;98.30;;;17.85;100.00;100596.88;4980670;28;20492;-75
2022/07/03 03:02:57;;;;;;;5.07;2.20;;;17.80;98.60;;;17.82;100.00;100600.53;4981758;28;20057;-75
2022/07/03 03:05:48;;;;;;;3.40;1.92;;;17.80;98.60;;;17.66;100.00;100603.13;4979889;28;20386;-75
2022/07/03 03:08:42;;;;;;;3.70;1.92;;;17.70;98.70;;;17.58;100.00;100613.28;4979602;28;20388;-75
2022/07/03 03:11:42;;;;;;;3.15;2.17;;;17.60;98.80;;;17.51;100.00;100615.38;4982775;28;20069;-75
2022/07/03 03:14:14;;;;;;;3.10;2.20;;;17.50;99.00;;;17.48;100.00;100609.34;4985290;28;20054;-75
2022/07/03 03:17:05;;;;;;;2.72;2.50;;;17.50;99.10;;;17.42;100.00;100630.00;4981674;28;21242;-75
2022/07/03 03:19:40;;;;;;;4.28;2.38;;;17.40;99.20;;;17.37;100.00;100624.03;4985385;28;20052;-75
2022/07/03 03:22:23;;;;;;;4.35;2.50;;;17.40;99.30;;;17.27;100.00;100630.72;4983336;28;20125;-75
2022/07/03 03:24:51;;;;;;;3.75;2.35;;;17.30;99.40;;;17.29;100.00;100619.09;4985827;28;20527;-75
2022/07/03 03:27:19;;;;;;;2.42;2.17;;;17.30;99.50;;;17.35;100.00;100628.56;4969236;28;20050;-75
2022/07/03 03:29:47;;;;;;;3.90;2.45;;;17.30;99.30;;;17.29;100.00;100635.03;4982099;28;20050;-75
2022/07/03 03:32:16;;;;;;;3.45;2.47;;;17.30;99.50;;;17.33;100.00;100629.56;4982397;28;20057;-75
2022/07/03 03:34:45;;;;;;;4.65;2.38;;;17.30;99.50;;;17.21;100.00;100633.69;4982739;28;20042;-75
2022/07/03 03:37:12;;;;;;;3.35;2.65;;;17.30;99.50;;;17.22;100.00;100638.91;4980925;28;20054;-75
2022/07/03 03:39:39;;;;;;;3.33;2.50;;;17.20;99.70;;;17.11;100.00;100644.75;4984008;28;20046;-75
2022/07/03 03:42:08;;;;;;;2.40;2.20;;;17.40;99.60;;;17.17;100.00;100640.94;4982482;28;20121;-76
2022/07/03 03:44:35;;;;;;;4.75;2.25;;;17.20;99.50;;;17.17;100.00;100648.03;4985838;28;20054;-75
2022/07/03 03:47:03;;;;;;;2.90;2.20;;;17.20;99.60;;;17.06;100.00;100643.25;4982562;28;20057;-75
2022/07/03 03:49:30;;;;;;;5.85;2.40;;;17.10;99.60;;;16.98;100.00;100644.44;4981936;28;20041;-76
2022/07/03 03:51:57;;;;;;;3.58;2.20;;;17.10;99.60;;;17.06;100.00;100648.56;4983111;28;20088;-76
2022/07/03 03:54:24;;;;;;;3.22;2.58;;;17.00;99.50;;;17.07;100.00;100652.94;4993680;28;20034;-75
2022/07/03 03:56:51;;;;;;;4.63;2.40;;;17.00;99.80;;;17.07;100.00;100655.59;4986478;28;20835;-75
2022/07/03 03:59:18;;;;;;;3.22;2.42;;;17.10;99.80;;;17.04;100.00;100658.41;4982251;28;20058;-75
2022/07/03 04:01:47;;;;;;;2.28;2.08;;;17.00;99.90;;;17.07;100.00;100656.47;4985166;28;20049;-75
2022/07/03 04:04:18;;;;;;;2.40;2.20;;;17.00;99.80;;;17.08;100.00;100660.84;4982692;28;20412;-75
2022/07/03 04:06:46;;;;;;;3.78;2.55;;;17.00;99.90;;;17.08;100.00;100668.81;4982483;28;20500;-75
2022/07/03 04:09:13;;;;;;;4.20;2.15;;;17.00;99.90;;;17.10;100.00;100669.63;4977463;28;20057;-75
2022/07/03 04:11:39;;;;;;;3.58;2.22;;;17.00;99.70;;;17.11;100.00;100670.50;4982176;28;20035;-75
2022/07/03 04:14:06;;;;;;;5.07;2.33;;;17.10;99.60;;;17.26;100.00;100667.09;4944948;28;20050;-75
2022/07/03 04:16:36;;;;;;;4.75;2.78;;;17.10;99.70;;;17.25;100.00;100669.81;4982098;28;20053;-75
2022/07/03 04:19:03;;;;;;;3.30;2.13;;;17.10;99.60;;;17.31;100.00;100663.38;4980575;28;20069;-75
2022/07/03 04:21:30;;;;;;;2.90;2.50;;;17.20;99.60;;;17.25;100.00;100661.84;4983884;28;20039;-75
2022/07/03 04:23:57;;;;;;;3.47;2.58;;;17.20;99.80;;;17.24;100.00;100671.59;4981502;28;20064;-75
2022/07/03 04:26:24;;;;;;;7.93;2.47;;;17.20;99.70;;;17.32;100.00;100671.25;4980440;28;20061;-75
2022/07/03 04:28:54;;;;;;;3.53;2.20;;;17.20;99.80;;;17.38;100.00;100670.09;4985578;28;20054;-75
2022/07/03 04:31:21;;;;;;;3.15;2.30;;;17.30;99.80;;;17.29;100.00;100672.28;4993469;28;21326;-75
2022/07/03 04:33:48;;;;;;;4.43;2.75;;;17.20;99.80;;;17.41;100.00;100677.97;4984816;28;20042;-75
2022/07/03 04:36:16;;;;;;;3.47;2.47;;;17.30;99.70;;;17.44;100.00;100673.31;4985788;28;20057;-76
2022/07/03 04:38:43;;;;;;;4.13;2.20;;;17.30;99.80;;;17.45;100.00;100679.53;4982273;28;20050;-75
2022/07/03 04:41:13;;;;;;;3.33;2.72;;;17.30;99.80;;;17.47;100.00;100676.78;4980825;28;20073;-75
2022/07/03 04:43:40;;;;;;;4.65;2.53;;;17.30;99.90;;;17.53;100.00;100682.66;4979868;28;20511;-75
2022/07/03 04:46:07;;;;;;;7.35;2.60;;;17.40;99.90;;;17.56;100.00;100668.34;4964597;28;20426;-75
2022/07/03 04:48:35;;;;;;;4.85;2.50;;;18.20;99.90;;;17.52;100.00;100685.41;4979943;28;20054;-75
2022/07/03 04:51:02;;;;;;;4.30;2.35;;;17.50;99.90;;;17.61;100.00;100687.59;4981749;28;20046;-76
2022/07/03 04:53:29;;;;;;;2.78;2.58;;;17.50;99.90;;;17.64;100.00;100683.94;4965095;28;20049;-75
2022/07/03 04:55:56;;;;;;;4.47;2.92;;;17.50;99.90;;;17.78;100.00;100681.47;4981981;28;20046;-75
2022/07/03 04:58:23;;;;;;;4.05;2.47;;;17.60;99.90;;;17.94;100.00;100676.22;4980394;28;20066;-75
2022/07/03 05:00:50;;;;;;;4.88;2.53;;;17.60;99.90;;;18.04;100.00;100676.69;4967349;28;20517;-76
2022/07/03 05:03:17;;;;;;;4.25;2.58;;;17.70;99.90;;;18.27;100.00;100674.63;4982883;28;20519;-75
2022/07/03 05:05:44;;;;;;;4.82;2.47;;;17.80;99.90;;;18.47;100.00;100681.59;4981549;28;20547;-75
2022/07/03 05:08:11;;;;;;;3.08;2.40;;;18.00;99.90;;;18.61;100.00;100680.88;4967867;28;21345;-75
2022/07/03 05:10:37;;;;;;;4.35;2.63;;;18.10;99.90;;;18.75;100.00;100673.94;4980033;28;20046;-75
2022/07/03 05:13:04;;;;;;;5.32;2.75;;;18.30;99.90;;;18.80;100.00;100679.88;4982335;28;20045;-76
2022/07/03 05:15:31;;;;;;;5.95;2.83;;;18.40;99.90;;;18.91;100.00;100677.50;4981013;28;20049;-75
2022/07/03 05:17:59;;;;;;;3.75;2.88;;;18.50;99.90;;;18.99;100.00;100686.00;4968052;28;20051;-75
2022/07/03 05:20:29;;;;;;;5.25;3.35;;;18.50;99.90;;;19.16;100.00;100683.31;4984238;28;20258;-75
2022/07/03 05:22:58;;;;;;;5.30;3.20;;;18.70;99.90;;;19.23;100.00;100682.91;4994079;28;20057;-75
2022/07/03 05:25:26;;;;;;;3.88;2.78;;;18.80;99.90;;;19.36;100.00;100687.56;4981204;28;20038;-74
2022/07/03 05:27:54;;;;;;;4.50;2.75;;;18.90;99.90;;;19.38;100.00;100689.22;4967869;28;20117;-75
2022/07/03 05:30:24;;;;;;;5.55;2.90;;;19.00;99.90;;;19.54;100.00;100686.53;4979203;28;20482;-75
2022/07/03 05:32:51;;;;;;;4.15;3.00;;;19.10;99.90;;;19.51;100.00;100681.38;4982157;28;20085;-74
2022/07/03 05:35:19;;;;;;;3.30;2.83;;;19.20;99.90;;;19.65;100.00;100693.06;4981138;28;20046;-75
2022/07/03 05:37:46;;;;;;;5.15;2.63;;;19.30;99.90;;;19.68;100.00;100688.41;4980400;28;20125;-75
2022/07/03 05:40:13;;;;;;;3.65;2.92;;;19.30;99.90;;;19.70;100.00;100685.66;4978424;28;20050;-75
2022/07/03 05:42:40;;;;;;;4.03;2.63;;;19.40;99.90;;;19.85;100.00;100689.25;4979391;28;20054;-75
2022/07/03 05:45:08;;;;;;;5.93;3.15;;;19.60;99.90;;;20.01;100.00;100696.41;4980677;28;20065;-75
2022/07/03 05:47:35;;;;;;;4.57;2.65;;;19.60;99.90;;;20.02;100.00;100690.94;4983053;28;20479;-75
2022/07/03 05:50:03;;;;;;;4.22;3.13;;;19.70;99.90;;;20.15;100.00;100692.91;4980866;28;20666;-76
2022/07/03 05:52:30;;;;;;;5.22;2.50;;;19.70;99.90;;;20.21;100.00;100685.38;4977846;28;20989;-75
2022/07/03 05:54:57;;;;;;;4.13;2.58;;;19.80;99.90;;;20.29;100.00;100684.94;4965739;28;20061;-75
2022/07/03 05:57:24;;;;;;;3.35;2.78;;;19.90;99.90;;;20.41;100.00;100686.00;4977455;28;20053;-75
2022/07/03 05:59:59;;;;;;;3.63;2.40;;;20.00;99.90;;;20.43;100.00;100691.25;4977449;28;20053;-75
2022/07/03 06:02:26;;;;;;;7.32;3.05;;;20.10;99.90;;;20.62;100.00;100689.19;4976648;28;20145;-75
2022/07/03 06:04:53;;;;;;;4.00;2.10;;;20.20;99.90;;;20.73;100.00;100693.00;4977125;28;20078;-75
2022/07/03 06:07:21;;;;;;;4.32;2.35;;;20.30;99.90;;;20.75;100.00;100688.44;4977875;28;20123;-77
2022/07/03 06:09:48;;;;;;;6.13;2.53;;;20.40;99.90;;;20.82;100.00;100692.47;4976695;28;20042;-76
2022/07/03 06:12:15;;;;;;;4.03;2.15;;;20.50;99.90;;;20.92;100.00;100690.94;4981627;28;20101;-75
2022/07/03 06:14:42;;;;;;;4.68;2.30;;;20.50;99.90;;;21.04;100.00;100691.97;4978452;28;20052;-76
2022/07/03 06:17:09;;;;;;;4.88;2.42;;;20.60;99.70;;;21.16;100.00;100693.03;4976835;28;20046;-75
2022/07/03 06:19:36;;;;;;;4.18;2.20;;;20.70;99.60;;;21.24;100.00;100695.22;4975893;28;20044;-76
2022/07/03 06:22:03;;;;;;;3.45;1.90;;;20.80;99.30;;;21.28;100.00;100694.06;4980071;28;20053;-75
2022/07/03 06:24:30;;;;;;;3.78;2.22;;;20.90;98.90;;;21.38;100.00;100692.50;4977916;28;20054;-75
2022/07/03 06:26:57;;;;;;;4.10;2.38;;;21.00;98.80;;;21.50;100.00;100696.22;4961891;28;20051;-75
2022/07/03 06:29:27;;;;;;;4.47;2.22;;;21.10;98.50;;;21.55;100.00;100693.25;4968558;28;20046;-75
2022/07/03 06:31:54;;;;;;;4.35;2.00;;;21.10;98.20;;;21.65;100.00;100701.53;4972947;28;20046;-76
2022/07/03 06:34:21;;;;;;;2.22;1.80;;;21.30;98.00;;;21.77;100.00;100700.72;4976760;28;20039;-75
2022/07/03 06:36:48;;;;;;;3.15;1.90;;;21.40;97.60;;;21.86;100.00;100696.59;4978813;28;20051;-76
2022/07/03 06:39:15;;;;;;;5.60;2.25;;;21.50;97.20;;;21.94;100.00;100699.63;4976673;28;20065;-76
2022/07/03 06:41:42;;;;;;;2.60;1.80;;;21.60;97.10;;;21.98;100.00;100702.97;4974390;28;20053;-75
2022/07/03 06:44:12;;;;;;;1.83;1.45;;;21.60;96.80;;;22.05;100.00;100703.41;4975823;28;20066;-75
2022/07/03 06:46:39;;;;;;;1.80;1.50;;;21.80;96.30;;;22.16;100.00;100695.47;4974027;28;20156;-76
2022/07/03 06:49:06;;;;;;;7.28;1.90;;;21.80;96.40;;;22.24;100.00;100697.63;4973305;28;20043;-75
2022/07/03 06:51:33;;;;;;;1.98;1.63;;;21.90;96.20;;;22.29;100.00;100689.28;4959441;28;20050;-75
2022/07/03 06:54:01;;;;;;;3.35;1.60;;;21.90;96.30;;;22.29;100.00;100684.78;4973553;28;20564;-75
2022/07/03 06:56:28;;;;;;;2.60;1.73;;;22.00;96.40;;;22.44;100.00;100690.91;4973642;28;20069;-76
2022/07/03 06:58:57;;;;;;;2.35;1.67;;;22.00;96.10;;;22.46;100.00;100693.50;4977329;28;20847;-75
2022/07/03 07:01:24;;;;;;;2.65;1.80;;;22.20;96.10;;;22.51;100.00;100688.69;4973201;28;20268;-75
2022/07/03 07:03:51;;;;;;;5.20;1.80;;;22.10;95.80;;;22.62;100.00;100686.13;4975448;28;20157;-76
2022/07/03 07:06:18;;;;;;;3.15;1.60;;;22.20;95.80;;;22.72;100.00;100696.22;4968931;28;20081;-75
2022/07/03 07:08:45;;;;;;;3.30;1.60;;;22.30;95.70;;;22.79;100.00;100689.44;4972524;28;20053;-74
2022/07/03 07:11:13;;;;;;;2.20;1.50;;;22.40;95.60;;;22.79;100.00;100687.63;4972229;28;20038;-74
2022/07/03 07:13:40;;;;;;;2.97;1.58;;;22.40;95.10;;;22.89;100.00;100695.88;4974115;28;20867;-77
2022/07/03 07:16:07;;;;;;;2.83;1.42;;;22.50;95.10;;;22.95;100.00;100692.75;4974532;28;20050;-77
2022/07/03 07:18:34;;;;;;;4.18;1.85;;;22.50;94.80;;;23.03;100.00;100694.06;4975039;28;20151;-76
2022/07/03 07:21:04;;;;;;;3.40;1.60;;;22.60;94.60;;;23.08;100.00;100702.63;4974947;28;20054;-75
2022/07/03 07:23:31;;;;;;;;;;;22.70;94.10;;;23.18;100.00;100682.22;4975779;28;20057;-76
2022/07/03 07:25:58;;;;;;;1.48;1.25;;;22.70;94.00;;;23.21;100.00;100695.41;4979724;28;19929;-78
2022/07/03 07:28:25;;;;;;;1.92;1.38;;;22.80;93.30;;;23.32;100.00;100693.78;4976552;28;20194;-78
2022/07/03 07:30:57;;;;;;;2.60;1.58;;;22.90;93.40;;;23.42;100.00;100688.63;4977163;28;20701;-78
2022/07/03 07:33:24;;;;;;;3.75;1.50;;;23.00;93.30;;;23.51;97.02;100690.59;4972066;28;20054;-76
2022/07/03 07:35:54;;;;;;;3.40;1.85;;;23.10;92.90;;;23.57;100.00;100683.94;4968508;28;20069;-77
2022/07/03 07:38:22;;;;;;;2.05;1.50;;;23.10;93.10;;;23.69;100.00;100684.84;4983954;28;20065;-77
2022/07/03 07:40:48;;;;;;;2.05;1.58;;;23.20;93.20;;;23.83;100.00;100689.19;4986054;28;20045;-77
2022/07/03 07:43:15;;;;;;;1.75;1.42;;;23.20;93.20;;;23.82;89.86;100685.63;4999747;28;20046;-79
2022/07/03 07:45:43;;;;;;;4.93;1.48;;;23.30;91.90;;;23.87;87.12;100680.75;4983329;28;20117;-78
2022/07/03 07:48:10;;;;;;;2.17;1.40;;;23.50;91.60;;;23.96;89.13;100683.75;4982013;28;20031;-77
2022/07/03 07:50:37;;;;;;;5.80;1.23;;;23.50;91.70;;;24.05;92.88;100683.91;4968949;28;20504;-79
2022/07/03 07:53:04;;;;;;;3.13;1.30;;;23.60;92.10;;;24.22;93.43;100689.84;4978926;28;20053;-78
2022/07/03 07:55:31;;;;;;;3.13;1.70;;;23.70;92.20;;;24.19;83.48;100685.53;4986092;28;20042;-79
2022/07/03 07:57:58;;;;;;;2.95;1.40;;;23.80;91.10;;;24.20;83.36;100686.41;4990068;28;20055;-79
2022/07/03 08:00:25;;;;;;;2.75;1.13;;;23.80;90.80;;;24.20;80.88;100689.09;4989142;28;20045;-78
2022/07/03 08:05:38;;;;;;;1.83;1.40;;;23.90;90.90;;;24.33;80.88;100689.00;4986903;28;20084;-79
2022/07/03 08:08:13;;;;;;;1.73;1.35;;;23.90;90.40;;;24.42;83.77;100696.38;4988039;28;20658;-78
2022/07/03 08:10:50;;;;;;;4.82;1.65;;;24.00;90.70;;;24.48;85.10;100687.81;4986387;28;20042;-78
2022/07/03 08:13:19;;;;;;;3.97;1.30;;;24.00;90.80;;;24.52;83.79;100688.44;4974732;28;20383;-79
2022/07/03 08:15:47;;;;;;;2.42;1.60;;;24.10;90.60;;;24.56;84.00;100687.22;4987160;28;20050;-77
2022/07/03 08:18:14;;;;;;;2.05;1.10;;;24.10;90.60;;;24.66;83.28;100689.19;4984727;28;20061;-78
2022/07/03 08:20:41;;;;;;;7.35;1.48;;;24.20;90.60;;;24.67;79.91;100688.22;4984158;28;20042;-78
2022/07/03 08:23:11;;;;;;;3.17;1.40;;;24.30;90.10;;;24.76;81.79;100687.53;4984420;28;20124;-78
2022/07/03 08:25:38;;;;;;;;;;;24.30;90.30;;;24.85;85.39;100686.78;4957961;28;20061;-77
2022/07/03 08:28:05;;;;;;;1.77;1.33;;;24.30;90.70;;;24.87;84.24;100684.81;4967975;28;19984;-77
2022/07/03 08:30:32;;;;;;;2.17;1.40;;;24.40;90.50;;;24.99;82.42;100692.88;4980721;28;20039;-76
2022/07/03 08:32:59;;;;;;;4.65;1.90;;;24.50;90.40;;;25.00;77.19;100692.78;4968468;28;20042;-78
2022/07/03 08:35:28;;;;;;;1.85;1.23;;;24.50;89.60;;;24.99;71.61;100691.06;4969026;28;20047;-78
2022/07/03 08:37:55;;;;;;;1.52;1.23;;;24.60;88.00;;;25.13;71.92;100681.00;4969625;28;20046;-77
2022/07/03 08:40:23;;;;;;;1.02;0.95;;;24.60;88.10;;;25.11;65.17;100691.91;4980882;28;20038;-78
2022/07/03 08:42:56;;;;;;;3.92;1.63;;;24.70;86.00;;;25.22;64.89;100690.19;4982928;28;20510;-78
2022/07/03 08:45:24;;;;;;;3.83;1.60;;;24.70;85.70;;;25.23;64.85;100689.22;4987306;28;20804;-77
2022/07/03 08:47:56;;;;;;;3.35;1.33;;;24.80;85.60;;;25.36;65.42;100692.59;4978646;28;20630;-78
2022/07/03 08:50:24;;;;;;;3.08;1.60;;;24.80;85.50;;;25.39;69.63;100684.28;4983940;28;20053;-78
2022/07/03 08:52:51;;;;;;;3.38;1.27;;;24.90;86.50;;;25.42;73.42;100684.03;4970129;28;20034;-78
2022/07/03 08:55:19;;;;;;;3.28;1.42;;;25.00;87.40;;;25.42;74.59;100694.81;4981867;28;20049;-80
2022/07/03 08:57:48;;;;;;;3.40;1.42;;;25.00;87.60;;;25.57;75.04;100683.78;4967862;28;20057;-80
2022/07/03 09:00:20;;;;;;;4.80;1.63;;;25.00;87.80;;;25.66;71.62;100683.00;4966894;28;20038;-78
2022/07/03 09:02:48;;;;;;;4.25;1.42;;;25.10;87.20;;;25.71;71.08;100688.88;4987769;28;20519;-78
2022/07/03 09:05:17;;;;;;;2.58;1.20;;;25.10;86.80;;;25.73;68.85;100686.91;4986805;28;20126;-77
2022/07/03 09:07:46;;;;;;;1.38;1.08;;;25.20;86.10;;;25.76;68.14;100681.25;4986603;28;20082;-78
2022/07/03 09:10:16;;;;;;;1.10;1.00;;;25.30;85.80;;;25.83;70.27;100681.59;4977324;28;20054;-81
2022/07/03 09:12:45;;;;;;;2.88;1.50;;;25.30;86.40;;;25.84;70.92;100685.16;4987284;28;20051;-78
2022/07/03 09:15:13;;;;;;;2.13;1.30;;;25.30;86.20;;;25.84;67.48;100687.84;4979656;28;20526;-82
2022/07/03 09:18:04;;;;;;;2.60;1.38;;;25.30;85.30;;;25.88;67.53;100681.22;4980645;28;20038;-78
2022/07/03 09:20:40;;;;;;;3.85;1.20;;;25.40;85.20;;;26.00;63.01;100682.00;4981539;28;20042;-78
2022/07/03 09:23:18;;;;;;;3.80;1.77;;;25.50;84.20;;;26.03;65.00;100681.75;4987330;28;20751;-79
2022/07/03 09:26:02;;;;;;;2.88;1.20;;;25.50;84.40;;;26.12;56.19;100691.75;4984117;28;20035;-77
2022/07/03 09:28:51;;;;;;;4.60;1.15;;;25.60;81.10;;;26.24;55.83;100678.25;4983714;28;20053;-78
2022/07/03 09:31:29;;;;;;;1.38;1.00;;;25.70;80.80;;;26.26;54.09;100681.66;4983883;28;20523;-78
2022/07/03 09:34:10;;;;;;;2.35;1.25;;;25.70;80.10;;;26.27;54.60;100697.69;4984237;28;20038;-79
2022/07/03 09:36:50;;;;;;;5.50;1.33;;;25.80;80.10;;;26.46;53.31;100682.66;4984576;28;20415;-78
2022/07/03 09:39:25;;;;;;;2.47;1.17;;;25.80;79.40;;;26.52;54.76;100675.84;4966253;28;20050;-77
2022/07/03 09:41:59;;;;;;;3.33;1.30;;;25.90;80.00;;;26.64;54.47;100674.78;4974425;28;20137;-80
2022/07/03 09:44:47;;;;;;;3.53;0.80;;;26.00;79.90;;;26.70;49.18;100678.78;4983153;28;20106;-77
2022/07/03 09:47:18;;;;;;;1.73;1.08;;;26.10;77.20;;;26.64;50.75;100682.03;4982291;28;20057;-77
2022/07/03 09:50:02;;;;;;;1.52;1.08;;;26.20;77.70;;;26.65;52.80;100681.88;4987708;28;20050;-77
2022/07/03 09:52:44;;;;;;;0.90;0.90;;;26.20;78.20;;;26.73;53.44;100682.06;4976069;28;20042;-77
2022/07/03 09:55:11;;;;;;;2.50;0.88;;;26.20;78.30;;;26.67;46.14;100674.50;4978851;28;20080;-79
2022/07/03 09:57:49;;;;;;;3.65;1.75;;;26.20;73.80;;;26.83;46.37;100671.31;4981648;28;20047;-78
2022/07/03 10:00:26;;;;;;;1.17;0.80;;;26.20;73.90;;;26.98;46.85;100663.72;4981856;28;20472;-76
2022/07/03 10:03:00;;;;;;;1.83;1.15;;;26.30;74.60;;;27.11;48.89;100674.28;4963184;28;20923;-76
2022/07/03 10:05:34;;;;;;;2.75;1.10;;;26.40;75.80;;;27.11;47.78;100668.91;4982515;28;20050;-76
2022/07/03 10:08:14;;;;;;;1.90;1.33;;;26.50;74.90;;;27.15;49.20;100672.16;4983967;28;20077;-76
2022/07/03 10:10:45;;;;;;;2.38;1.52;;;26.60;75.50;;;27.20;46.77;100666.34;4980036;28;20129;-77
2022/07/03 10:13:14;;;;;;;4.43;1.58;;;26.60;73.70;;;27.42;47.00;100665.25;4980584;28;20084;-76
2022/07/03 10:15:43;;;;;;;4.50;1.10;;;26.70;74.30;;;27.35;45.29;100666.81;4978707;28;20054;-75
2022/07/03 10:18:12;;;;;;;1.40;0.75;;;26.80;72.60;;;27.40;45.65;100659.13;4968894;28;20047;-77
2022/07/03 10:20:47;;;;;;;4.90;1.13;;;26.80;72.70;;;27.52;45.52;100655.34;4980345;28;20057;-76
2022/07/03 10:23:22;;;;;;;4.50;0.93;;;26.90;72.20;;;27.58;43.50;100649.38;4987815;28;20054;-78
2022/07/03 10:25:50;;;;;;;3.10;1.23;;;27.00;70.60;;;27.73;44.88;100652.50;4986931;28;20058;-78
2022/07/03 10:28:18;;;;;;;1.48;1.20;;;27.10;71.70;;;27.88;42.57;100652.91;4968440;28;20042;-78
2022/07/03 10:30:49;;;;;;;2.53;0.95;;;27.20;69.90;;;27.92;42.68;100658.91;4980881;28;20035;-77